createdAt,value
2022-12-09T00:00:11.989Z,19.30
2022-12-09T00:02:40.907Z,19.63
2022-12-09T00:05:10.840Z,21.40
2022-12-09T00:07:39.633Z,22.43
2022-12-09T00:10:10.041Z,17.33
2022-12-09T00:12:40.279Z,20.93
2022-12-09T00:15:09.792Z,19.47
2022-12-09T00:17:38.763Z,17.70
2022-12-09T00:20:09.796Z,23.10
2022-12-09T00:22:38.466Z,19.00
2022-12-09T00:25:08.223Z,17.90
2022-12-09T00:27:37.017Z,16.33
2022-12-09T00:30:09.946Z,19.87
2022-12-09T00:32:39.064Z,17.33
2022-12-09T00:35:08.231Z,27.63
2022-12-09T00:37:36.861Z,21.63
2022-12-09T00:40:07.211Z,20.30
2022-12-09T00:42:36.425Z,21.03
2022-12-09T00:45:07.863Z,23.00
2022-12-09T00:47:36.920Z,20.60
2022-12-09T00:50:07.700Z,16.93
2022-12-09T00:52:36.408Z,18.17
2022-12-09T00:55:07.655Z,19.37
2022-12-09T00:57:36.108Z,15.00
2022-12-09T01:00:08.866Z,18.93
2022-12-09T01:02:38.173Z,18.37
2022-12-09T01:05:07.693Z,20.33
2022-12-09T01:07:37.834Z,17.97
2022-12-09T01:10:08.093Z,22.97
2022-12-09T01:12:36.788Z,17.87
2022-12-09T01:15:08.982Z,16.07
2022-12-09T01:17:38.314Z,19.10
2022-12-09T01:20:10.321Z,15.47
2022-12-09T01:22:39.612Z,19.97
2022-12-09T01:25:08.986Z,18.30
2022-12-09T01:27:37.514Z,17.20
2022-12-09T01:30:10.739Z,22.70
2022-12-09T01:32:39.489Z,17.40
2022-12-09T01:35:09.299Z,20.53
2022-12-09T01:37:38.972Z,20.07
2022-12-09T01:40:12.025Z,17.87
2022-12-09T01:42:40.903Z,18.33
2022-12-09T01:45:40.220Z,20.37
2022-12-09T01:48:14.223Z,19.57
2022-12-09T01:50:51.053Z,18.83
2022-12-09T01:53:21.678Z,18.83
2022-12-09T01:55:50.760Z,25.67
2022-12-09T01:58:20.213Z,23.93
2022-12-09T02:00:50.342Z,19.10
2022-12-09T02:03:22.407Z,20.53
2022-12-09T02:05:51.110Z,24.13
2022-12-09T02:08:21.242Z,23.40
2022-12-09T02:11:04.991Z,23.33
2022-12-09T02:13:49.703Z,19.93
2022-12-09T02:16:24.484Z,20.70
2022-12-09T02:19:01.256Z,17.10
2022-12-09T02:21:37.004Z,20.23
2022-12-09T02:24:15.908Z,18.80
2022-12-09T02:26:55.820Z,23.50
2022-12-09T02:29:44.585Z,17.63
2022-12-09T02:32:41.283Z,23.27
2022-12-09T02:35:21.909Z,21.93
2022-12-09T02:37:58.360Z,22.17
2022-12-09T02:40:35.732Z,21.37
2022-12-09T02:43:07.898Z,23.30
2022-12-09T02:45:38.834Z,21.63
2022-12-09T02:48:08.428Z,24.00
2022-12-09T02:50:41.734Z,25.90
2022-12-09T02:53:14.150Z,23.83
2022-12-09T02:55:46.316Z,22.70
2022-12-09T02:58:15.070Z,21.27
2022-12-09T03:00:44.202Z,24.40
2022-12-09T03:03:16.997Z,22.20
2022-12-09T03:05:53.531Z,27.20
2022-12-09T03:08:32.710Z,23.27
2022-12-09T03:11:05.072Z,21.97
2022-12-09T03:13:48.140Z,23.63
2022-12-09T03:16:25.465Z,28.30
2022-12-09T03:18:59.118Z,21.93
2022-12-09T03:21:31.094Z,25.57
2022-12-09T03:24:01.837Z,26.20
2022-12-09T03:26:35.164Z,24.43
2022-12-09T03:29:08.139Z,22.70
2022-12-09T03:31:38.316Z,23.10
2022-12-09T03:34:11.482Z,26.53
2022-12-09T03:36:43.745Z,26.53
2022-12-09T03:39:16.431Z,26.90
2022-12-09T03:41:47.651Z,21.80
2022-12-09T03:44:27.718Z,24.43
2022-12-09T03:46:56.432Z,27.87
2022-12-09T03:49:24.981Z,24.13
2022-12-09T03:52:02.369Z,25.90
2022-12-09T03:54:37.991Z,26.63
2022-12-09T03:57:07.035Z,27.30
2022-12-09T03:59:36.654Z,28.20
2022-12-09T04:02:07.195Z,25.40
2022-12-09T04:04:36.795Z,24.13
2022-12-09T04:07:06.976Z,34.37
2022-12-09T04:09:36.250Z,24.93
2022-12-09T04:12:05.015Z,27.43
2022-12-09T04:14:34.082Z,28.10
2022-12-09T04:17:02.683Z,25.07
2022-12-09T04:19:31.571Z,30.07
2022-12-09T04:22:01.890Z,26.20
2022-12-09T04:24:31.756Z,25.83
2022-12-09T04:27:00.185Z,26.40
2022-12-09T04:29:28.888Z,24.70
2022-12-09T04:31:57.867Z,28.93
2022-12-09T04:34:26.490Z,24.37
2022-12-09T04:36:55.060Z,22.07
2022-12-09T04:39:23.542Z,30.63
2022-12-09T04:41:53.308Z,23.77
2022-12-09T04:44:21.967Z,21.97
2022-12-09T04:46:50.871Z,30.57
2022-12-09T04:49:19.391Z,33.77
2022-12-09T04:51:49.160Z,22.43
2022-12-09T04:54:17.873Z,25.50
2022-12-09T04:56:46.293Z,30.77
2022-12-09T04:59:16.853Z,27.67
2022-12-09T05:01:45.699Z,25.37
2022-12-09T05:04:14.342Z,24.60
2022-12-09T05:06:43.421Z,23.67
2022-12-09T05:09:14.538Z,26.30
2022-12-09T05:11:43.260Z,27.20
2022-12-09T05:14:11.892Z,24.43
2022-12-09T05:16:42.192Z,28.13
2022-12-09T05:19:11.517Z,27.87
2022-12-09T05:21:40.622Z,27.90
2022-12-09T05:24:09.427Z,25.07
2022-12-09T05:26:38.467Z,26.17
2022-12-09T05:29:07.577Z,25.87
2022-12-09T05:31:36.476Z,28.50
2022-12-09T05:34:07.721Z,30.83
2022-12-09T05:36:36.537Z,25.67
2022-12-09T05:39:06.083Z,25.80
2022-12-09T05:41:34.903Z,29.73
2022-12-09T05:44:04.011Z,25.27
2022-12-09T05:46:32.856Z,28.80
2022-12-09T05:49:01.958Z,26.47
2022-12-09T05:51:32.925Z,27.27
2022-12-09T05:54:03.626Z,31.80
2022-12-09T05:56:33.548Z,23.50
2022-12-09T05:59:02.513Z,26.30
2022-12-09T06:01:31.381Z,26.87
2022-12-09T06:03:59.894Z,27.30
2022-12-09T06:06:30.348Z,28.30
2022-12-09T06:09:03.620Z,28.90
2022-12-09T06:11:33.578Z,27.77
2022-12-09T06:14:02.217Z,31.37
2022-12-09T06:16:30.783Z,29.07
2022-12-09T06:19:00.000Z,26.93
2022-12-09T06:21:28.602Z,26.07
2022-12-09T06:23:57.441Z,27.57
2022-12-09T06:26:30.721Z,31.00
2022-12-09T06:29:00.514Z,30.57
2022-12-09T06:31:30.180Z,25.00
2022-12-09T06:33:59.921Z,28.53
2022-12-09T06:36:31.264Z,28.37
2022-12-09T06:39:09.642Z,28.37
2022-12-09T06:41:43.139Z,29.50
2022-12-09T06:44:18.379Z,25.13
2022-12-09T06:46:50.357Z,31.43
2022-12-09T06:49:19.116Z,29.40
2022-12-09T06:51:47.876Z,24.63
2022-12-09T06:54:16.663Z,27.27
2022-12-09T06:56:46.706Z,29.43
2022-12-09T06:59:15.571Z,25.40
2022-12-09T07:01:44.859Z,29.93
2022-12-09T07:04:15.847Z,30.83
2022-12-09T07:06:46.457Z,27.97
2022-12-09T07:09:18.847Z,23.80
2022-12-09T07:11:49.653Z,29.37
2022-12-09T07:14:20.111Z,25.90
2022-12-09T07:16:49.165Z,27.40
2022-12-09T07:19:20.211Z,27.20
2022-12-09T07:21:49.507Z,27.90
2022-12-09T07:24:20.234Z,29.80
2022-12-09T07:26:50.821Z,32.30
2022-12-09T07:29:20.118Z,32.20
2022-12-09T07:31:49.559Z,27.60
2022-12-09T07:34:18.798Z,30.20
2022-12-09T07:36:48.199Z,30.90
2022-12-09T07:39:19.294Z,27.20
2022-12-09T07:41:53.274Z,24.67
2022-12-09T07:44:21.790Z,24.63
2022-12-09T07:46:50.696Z,35.10
2022-12-09T07:49:19.410Z,28.77
2022-12-09T07:51:48.375Z,31.33
2022-12-09T07:54:19.108Z,29.27
2022-12-09T07:56:50.020Z,30.50
2022-12-09T07:59:18.565Z,28.47
2022-12-09T08:01:47.282Z,29.67
2022-12-09T08:04:16.388Z,31.67
2022-12-09T08:06:44.952Z,24.87
2022-12-09T08:09:15.756Z,30.20
2022-12-09T08:11:44.689Z,30.30
2022-12-09T08:14:15.022Z,30.73
2022-12-09T08:16:44.668Z,29.30
2022-12-09T08:19:14.552Z,32.30
2022-12-09T08:21:45.504Z,30.70
2022-12-09T08:24:15.927Z,28.77
2022-12-09T08:26:44.596Z,30.73
2022-12-09T08:29:16.355Z,31.13
2022-12-09T08:31:45.604Z,32.07
2022-12-09T08:34:15.343Z,30.43
2022-12-09T08:36:45.080Z,33.27
2022-12-09T08:39:15.518Z,28.73
2022-12-09T08:41:44.875Z,30.20
2022-12-09T08:44:18.787Z,32.00
2022-12-09T08:46:49.545Z,30.20
2022-12-09T08:49:21.177Z,30.80
2022-12-09T08:51:52.640Z,28.70
2022-12-09T08:54:21.718Z,32.40
2022-12-09T08:56:55.227Z,30.00
2022-12-09T08:59:25.560Z,29.47
2022-12-09T09:01:54.507Z,27.40
2022-12-09T09:04:24.495Z,26.23
2022-12-09T09:06:54.738Z,25.47
2022-12-09T09:09:23.474Z,22.97
2022-12-09T09:11:52.574Z,26.90
2022-12-09T09:14:21.351Z,23.80
2022-12-09T09:16:52.042Z,24.43
2022-12-09T09:19:26.029Z,25.53
2022-12-09T09:21:56.261Z,24.37
2022-12-09T09:24:26.793Z,22.70
2022-12-09T09:26:56.735Z,20.93
2022-12-09T09:29:25.735Z,23.07
2022-12-09T09:31:56.521Z,29.90
2022-12-09T09:34:26.975Z,24.90
2022-12-09T09:36:57.837Z,24.47
2022-12-09T09:39:26.585Z,21.73
2022-12-09T09:42:01.968Z,25.63
2022-12-09T09:44:38.890Z,21.50
2022-12-09T09:47:19.856Z,17.93
2022-12-09T09:49:55.702Z,22.60
2022-12-09T09:52:28.394Z,22.57
2022-12-09T09:54:58.007Z,24.10
2022-12-09T09:57:36.752Z,22.90
2022-12-09T10:00:22.379Z,18.67
2022-12-09T10:03:01.346Z,26.33
2022-12-09T10:05:34.341Z,21.80
2022-12-09T10:08:27.079Z,17.67
2022-12-09T10:11:09.152Z,17.37
2022-12-09T10:13:48.568Z,14.20
2022-12-09T10:16:20.963Z,15.80
2022-12-09T10:19:08.901Z,15.90
2022-12-09T10:21:43.478Z,19.67
2022-12-09T10:24:25.021Z,20.00
2022-12-09T10:27:04.899Z,19.30
2022-12-09T10:29:56.065Z,17.57
2022-12-09T10:32:28.811Z,13.93
2022-12-09T10:34:59.259Z,15.00
2022-12-09T10:37:32.131Z,15.50
2022-12-09T10:40:18.157Z,13.50
2022-12-09T10:43:08.074Z,17.63
2022-12-09T10:46:15.845Z,15.67
2022-12-09T10:48:37.665Z,15.53
2022-12-09T10:51:14.163Z,16.97
2022-12-09T10:53:48.721Z,19.10
2022-12-09T10:56:24.356Z,19.30
2022-12-09T10:59:12.722Z,17.03
2022-12-09T11:01:51.993Z,18.07
2022-12-09T11:04:26.859Z,16.40
2022-12-09T11:07:01.103Z,19.10
2022-12-09T11:09:32.204Z,18.37
2022-12-09T11:12:02.269Z,14.87
2022-12-09T11:14:36.684Z,14.83
2022-12-09T11:17:18.745Z,15.70
2022-12-09T11:19:51.430Z,15.17
2022-12-09T11:22:39.580Z,14.70
2022-12-09T11:25:23.971Z,14.30
2022-12-09T11:27:56.272Z,17.97
2022-12-09T11:30:28.003Z,14.90
2022-12-09T11:33:03.329Z,17.07
2022-12-09T11:35:52.828Z,13.50
2022-12-09T11:38:33.217Z,13.93
2022-12-09T11:41:07.860Z,17.77
2022-12-09T11:43:41.276Z,18.27
2022-12-09T11:46:25.770Z,14.60
2022-12-09T11:48:58.396Z,16.03
2022-12-09T11:51:32.919Z,22.00
2022-12-09T11:54:10.345Z,15.73
2022-12-09T11:56:41.733Z,15.83
2022-12-09T11:59:16.466Z,16.30
2022-12-09T12:01:53.230Z,16.67
2022-12-09T12:04:28.582Z,18.37
2022-12-09T12:07:03.495Z,16.17
2022-12-09T12:09:40.825Z,14.10
2022-12-09T12:12:19.706Z,13.13
2022-12-09T12:14:48.314Z,15.40
2022-12-09T12:17:25.899Z,14.20
2022-12-09T12:19:56.387Z,13.70
2022-12-09T12:23:05.101Z,15.40
2022-12-09T12:25:48.124Z,17.40
2022-12-09T12:29:06.887Z,16.43
2022-12-09T12:32:14.554Z,13.30
2022-12-09T12:34:53.610Z,13.60
2022-12-09T12:37:39.951Z,13.20
2022-12-09T12:40:22.015Z,14.87
2022-12-09T12:43:28.573Z,11.27
2022-12-09T12:46:21.952Z,12.90
2022-12-09T12:49:24.308Z,14.83
2022-12-09T12:52:04.671Z,16.43
2022-12-09T12:54:45.503Z,13.40
2022-12-09T12:57:21.227Z,14.73
2022-12-09T13:00:00.026Z,12.63
2022-12-09T13:02:41.527Z,15.90
2022-12-09T13:05:19.962Z,12.83
2022-12-09T13:07:52.878Z,19.20
2022-12-09T13:10:31.824Z,14.70
2022-12-09T13:13:02.016Z,13.80
2022-12-09T13:15:34.956Z,16.90
2022-12-09T13:18:12.966Z,16.47
2022-12-09T13:20:47.849Z,16.43
2022-12-09T13:23:33.754Z,16.07
2022-12-09T13:26:19.120Z,15.97
2022-12-09T13:28:54.307Z,13.57
2022-12-09T13:31:29.974Z,15.60
2022-12-09T13:34:18.120Z,17.07
2022-12-09T13:36:48.920Z,15.67
2022-12-09T13:39:59.489Z,14.23
2022-12-09T13:42:56.470Z,14.83
2022-12-09T13:45:34.832Z,12.57
2022-12-09T13:48:46.773Z,13.80
2022-12-09T13:51:16.424Z,12.37
2022-12-09T13:54:03.793Z,12.10
2022-12-09T13:56:35.419Z,16.30
2022-12-09T13:59:43.621Z,15.23
2022-12-09T14:02:23.107Z,14.40
2022-12-09T14:05:06.985Z,13.57
2022-12-09T14:07:42.960Z,13.37
2022-12-09T14:10:40.776Z,13.97
2022-12-09T14:13:30.639Z,11.93
2022-12-09T14:16:19.409Z,10.70
2022-12-09T14:18:47.842Z,11.20
2022-12-09T14:21:33.704Z,10.27
2022-12-09T14:24:36.673Z,10.83
2022-12-09T14:27:17.842Z,11.63
2022-12-09T14:29:51.591Z,13.43
2022-12-09T14:32:24.231Z,11.90
2022-12-09T14:35:08.879Z,12.60
2022-12-09T14:38:10.373Z,10.90
2022-12-09T14:40:56.897Z,11.93
2022-12-09T14:44:08.569Z,12.47
2022-12-09T14:46:39.400Z,13.73
2022-12-09T14:49:16.984Z,12.47
2022-12-09T14:51:49.959Z,16.40
2022-12-09T14:54:28.376Z,15.57
2022-12-09T14:57:00.327Z,18.17
2022-12-09T14:59:31.697Z,20.33
2022-12-09T15:02:03.206Z,17.05
2022-12-09T15:04:35.632Z,16.53
2022-12-09T15:07:15.800Z,18.37
2022-12-09T15:09:55.798Z,17.07
2022-12-09T15:12:31.423Z,17.47
2022-12-09T15:15:06.411Z,17.70
2022-12-09T15:17:43.233Z,20.90
2022-12-09T15:20:27.721Z,18.67
2022-12-09T15:23:00.470Z,17.87
2022-12-09T15:25:30.900Z,16.10
2022-12-09T15:28:01.977Z,16.33
2022-12-09T15:30:35.168Z,16.50
2022-12-09T15:33:05.250Z,19.43
2022-12-09T15:35:35.323Z,17.00
2022-12-09T15:38:08.764Z,14.77
2022-12-09T15:40:59.215Z,20.10
2022-12-09T15:43:27.753Z,16.90
2022-12-09T15:45:56.535Z,19.47
2022-12-09T15:48:33.074Z,17.80
2022-12-09T15:51:06.575Z,20.50
2022-12-09T15:53:40.677Z,18.70
2022-12-09T15:56:15.920Z,18.37
2022-12-09T15:58:49.624Z,17.00
2022-12-09T16:01:23.846Z,17.53
2022-12-09T16:03:54.729Z,18.80
2022-12-09T16:06:28.555Z,18.37
2022-12-09T16:08:57.059Z,17.40
2022-12-09T16:11:42.494Z,25.23
2022-12-09T16:14:11.825Z,15.97
2022-12-09T16:16:48.333Z,17.63
2022-12-09T16:19:38.260Z,17.77
2022-12-09T16:22:09.759Z,13.73
2022-12-09T16:25:13.483Z,15.60
2022-12-09T16:27:38.258Z,15.47
2022-12-09T16:30:15.339Z,17.70
2022-12-09T16:32:47.926Z,16.73
2022-12-09T16:35:24.234Z,15.27
2022-12-09T16:38:17.332Z,16.33
2022-12-09T16:41:13.358Z,17.77
2022-12-09T16:43:58.522Z,14.90
2022-12-09T16:46:41.523Z,13.33
2022-12-09T16:49:10.223Z,13.63
2022-12-09T16:51:40.486Z,15.97
2022-12-09T16:54:20.579Z,15.73
2022-12-09T16:56:51.381Z,16.93
2022-12-09T16:59:21.370Z,13.93
2022-12-09T17:01:50.298Z,15.17
2022-12-09T17:04:23.482Z,15.57
2022-12-09T17:06:52.259Z,13.73
2022-12-09T17:09:21.035Z,17.73
2022-12-09T17:11:49.616Z,15.60
2022-12-09T17:14:19.947Z,16.57
2022-12-09T17:16:48.558Z,15.03
2022-12-09T17:19:19.570Z,15.23
2022-12-09T17:21:47.962Z,14.10
2022-12-09T17:24:17.248Z,16.00
2022-12-09T17:26:45.699Z,14.67
2022-12-09T17:29:14.719Z,16.40
2022-12-09T17:31:44.698Z,15.00
2022-12-09T17:34:13.165Z,21.40
2022-12-09T17:36:41.653Z,15.90
2022-12-09T17:39:12.744Z,15.20
2022-12-09T17:41:41.215Z,15.67
2022-12-09T17:44:10.333Z,16.47
2022-12-09T17:46:38.816Z,19.03
2022-12-09T17:49:08.613Z,17.33
2022-12-09T17:51:36.991Z,18.57
2022-12-09T17:54:06.026Z,19.93
2022-12-09T17:56:34.562Z,23.23
2022-12-09T17:59:07.400Z,18.60
2022-12-09T18:01:37.696Z,20.23
2022-12-09T18:04:10.489Z,18.80
2022-12-09T18:06:41.265Z,20.80
2022-12-09T18:09:12.543Z,18.63
2022-12-09T18:11:41.543Z,21.57
2022-12-09T18:14:11.098Z,24.47
2022-12-09T18:16:39.797Z,22.57
2022-12-09T18:19:15.312Z,22.73
2022-12-09T18:21:44.192Z,20.13
2022-12-09T18:24:12.825Z,23.50
2022-12-09T18:26:42.353Z,21.50
2022-12-09T18:29:11.921Z,23.23
2022-12-09T18:31:40.722Z,24.37
2022-12-09T18:34:10.618Z,24.00
2022-12-09T18:36:39.436Z,22.00
2022-12-09T18:39:08.497Z,22.00
2022-12-09T18:41:37.049Z,27.33
2022-12-09T18:44:08.242Z,24.50
2022-12-09T18:46:39.337Z,20.73
2022-12-09T18:49:13.074Z,24.10
2022-12-09T18:51:43.118Z,25.40
2022-12-09T18:54:17.344Z,22.10
2022-12-09T18:56:46.632Z,22.73
2022-12-09T18:59:15.208Z,23.57
2022-12-09T19:01:46.330Z,24.20
2022-12-09T19:04:19.403Z,23.33
2022-12-09T19:06:50.474Z,30.57
2022-12-09T19:09:21.336Z,26.23
2022-12-09T19:11:51.574Z,24.23
2022-12-09T19:14:23.123Z,27.00
2022-12-09T19:16:52.623Z,25.43
2022-12-09T19:19:25.560Z,25.80
2022-12-09T19:21:55.215Z,29.77
2022-12-09T19:24:26.543Z,22.60
2022-12-09T19:26:57.922Z,28.23
2022-12-09T19:29:28.092Z,23.90
2022-12-09T19:31:58.413Z,27.37
2022-12-09T19:34:30.520Z,30.33
2022-12-09T19:37:01.696Z,24.77
2022-12-09T19:39:34.052Z,27.03
2022-12-09T19:42:05.085Z,29.00
2022-12-09T19:45:00.345Z,29.37
2022-12-09T19:47:23.849Z,28.23
2022-12-09T19:49:53.635Z,27.60
2022-12-09T19:52:22.140Z,33.13
2022-12-09T19:54:50.652Z,26.40
2022-12-09T19:57:19.156Z,29.13
2022-12-09T19:59:48.233Z,28.30
2022-12-09T20:02:16.724Z,24.93
2022-12-09T20:04:50.195Z,27.03
2022-12-09T20:07:21.083Z,24.87
2022-12-09T20:09:49.987Z,31.03
2022-12-09T20:12:18.460Z,32.70
2022-12-09T20:14:47.046Z,27.57
2022-12-09T20:17:16.775Z,27.60
2022-12-09T20:19:45.579Z,27.00
2022-12-09T20:22:14.063Z,27.20
2022-12-09T20:24:44.352Z,26.97
2022-12-09T20:27:13.040Z,24.73
2022-12-09T20:29:41.478Z,23.47
2022-12-09T20:32:10.774Z,24.43
2022-12-09T20:34:39.676Z,26.47
2022-12-09T20:37:08.494Z,25.20
2022-12-09T20:39:37.103Z,25.30
2022-12-09T20:42:07.299Z,26.87
2022-12-09T20:44:35.711Z,29.60
2022-12-09T20:47:04.207Z,26.60
2022-12-09T20:49:32.676Z,25.43
2022-12-09T20:52:01.179Z,27.53
2022-12-09T20:54:29.782Z,25.70
2022-12-09T20:56:58.178Z,26.63
2022-12-09T20:59:28.509Z,27.33
2022-12-09T21:01:57.003Z,25.20
2022-12-09T21:04:25.528Z,26.90
2022-12-09T21:06:54.101Z,28.63
2022-12-09T21:09:27.216Z,25.03
2022-12-09T21:11:55.703Z,26.43
2022-12-09T21:14:28.120Z,25.90
2022-12-09T21:17:03.028Z,27.37
2022-12-09T21:19:32.545Z,23.60
2022-12-09T21:22:01.050Z,25.10
2022-12-09T21:24:29.558Z,23.63
2022-12-09T21:26:58.153Z,25.60
2022-12-09T21:29:31.510Z,30.77
2022-12-09T21:32:02.684Z,28.47
2022-12-09T21:34:31.695Z,23.63
2022-12-09T21:37:00.398Z,23.83
2022-12-09T21:39:29.325Z,28.77
2022-12-09T21:41:57.759Z,26.03
2022-12-09T21:44:27.276Z,25.63
2022-12-09T21:46:55.763Z,23.83
2022-12-09T21:49:25.991Z,26.50
2022-12-09T21:51:54.409Z,27.87
2022-12-09T21:54:22.848Z,26.33
2022-12-09T21:56:51.290Z,27.83
2022-12-09T21:59:19.905Z,29.87
2022-12-09T22:01:48.416Z,28.30
2022-12-09T22:04:17.847Z,27.40
2022-12-09T22:06:50.039Z,27.83
2022-12-09T22:09:21.232Z,26.67
2022-12-09T22:11:49.948Z,28.23
2022-12-09T22:14:18.440Z,27.13
2022-12-09T22:16:47.594Z,28.10
2022-12-09T22:19:18.618Z,26.87
2022-12-09T22:21:49.729Z,30.80
2022-12-09T22:24:19.339Z,29.47
2022-12-09T22:26:48.558Z,29.03
2022-12-09T22:29:18.783Z,30.30
2022-12-09T22:31:47.977Z,26.67
2022-12-09T22:34:19.871Z,29.77
2022-12-09T22:36:50.617Z,29.47
2022-12-09T22:39:22.758Z,32.73
2022-12-09T22:41:51.876Z,27.83
2022-12-09T22:44:21.298Z,30.30
2022-12-09T22:46:50.083Z,30.10
2022-12-09T22:49:19.795Z,33.80
2022-12-09T22:51:49.740Z,32.33
2022-12-09T22:54:18.540Z,32.53
2022-12-09T22:56:47.059Z,27.13
2022-12-09T22:59:16.093Z,31.37
2022-12-09T23:01:47.491Z,27.57
2022-12-09T23:04:19.071Z,28.83
2022-12-09T23:06:47.527Z,28.60
2022-12-09T23:09:21.049Z,32.33
2022-12-09T23:11:50.527Z,31.50
2022-12-09T23:14:19.875Z,33.50
2022-12-09T23:16:48.464Z,30.93
2022-12-09T23:19:16.815Z,29.30
2022-12-09T23:21:45.256Z,29.40
2022-12-09T23:24:24.122Z,30.60
2022-12-09T23:26:55.393Z,30.47
2022-12-09T23:29:23.957Z,31.50
2022-12-09T23:31:52.427Z,26.60
2022-12-09T23:34:21.268Z,31.77
2022-12-09T23:36:49.696Z,29.03
2022-12-09T23:39:20.687Z,25.90
2022-12-09T23:41:49.731Z,27.40
2022-12-09T23:44:20.316Z,30.83
2022-12-09T23:46:49.592Z,27.53
2022-12-09T23:49:18.680Z,28.10
2022-12-09T23:51:48.069Z,25.10
2022-12-09T23:54:19.434Z,29.57
2022-12-09T23:56:50.710Z,28.00
2022-12-09T23:59:22.405Z,31.23
